createdAt,value
2018-03-30T00:00:16.365Z,2.90
2018-03-30T00:02:44.666Z,2.90
2018-03-30T00:05:13.712Z,3.00
2018-03-30T00:07:42.032Z,3.00
2018-03-30T00:10:10.231Z,3.00
2018-03-30T00:12:38.475Z,3.00
2018-03-30T00:15:08.034Z,3.00
2018-03-30T00:17:36.297Z,2.90
2018-03-30T00:20:04.577Z,2.90
2018-03-30T00:22:32.864Z,2.90
2018-03-30T00:25:01.119Z,2.90
2018-03-30T00:27:29.386Z,2.90
2018-03-30T00:29:57.638Z,2.90
2018-03-30T00:32:26.739Z,2.90
2018-03-30T00:34:55.564Z,2.90
2018-03-30T00:37:24.755Z,2.90
2018-03-30T00:39:53.805Z,2.90
2018-03-30T00:42:23.071Z,2.90
2018-03-30T00:44:51.329Z,2.90
2018-03-30T00:47:19.623Z,2.90
2018-03-30T00:49:47.903Z,3.00
2018-03-30T00:52:16.322Z,3.00
2018-03-30T00:54:45.839Z,3.00
2018-03-30T00:57:14.073Z,3.10
2018-03-30T00:59:42.348Z,3.10
2018-03-30T01:02:11.496Z,3.00
2018-03-30T01:04:40.515Z,3.00
2018-03-30T01:07:09.542Z,3.10
2018-03-30T01:09:38.615Z,3.00
2018-03-30T01:12:06.903Z,3.00
2018-03-30T01:14:35.167Z,3.10
2018-03-30T01:17:04.176Z,3.10
2018-03-30T01:19:32.435Z,3.10
2018-03-30T01:22:00.701Z,3.10
2018-03-30T01:24:29.777Z,3.10
2018-03-30T01:26:58.055Z,3.10
2018-03-30T01:29:26.291Z,3.10
2018-03-30T01:31:54.560Z,3.00
2018-03-30T01:34:22.816Z,3.10
2018-03-30T01:36:51.059Z,3.10
2018-03-30T01:39:19.315Z,3.00
2018-03-30T01:41:47.582Z,3.00
2018-03-30T01:44:15.835Z,3.00
2018-03-30T01:46:44.106Z,3.00
2018-03-30T01:49:12.368Z,2.90
2018-03-30T01:51:40.666Z,2.80
2018-03-30T01:54:08.991Z,2.70
2018-03-30T01:56:37.270Z,2.70
2018-03-30T01:59:05.585Z,2.60
2018-03-30T02:01:34.249Z,2.50
2018-03-30T02:04:02.475Z,2.60
2018-03-30T02:06:30.719Z,2.60
2018-03-30T02:08:59.774Z,2.50
2018-03-30T02:11:28.022Z,2.50
2018-03-30T02:13:56.315Z,2.40
2018-03-30T02:16:24.615Z,2.50
2018-03-30T02:18:52.870Z,2.50
2018-03-30T02:21:21.110Z,2.50
2018-03-30T02:23:50.146Z,2.50
2018-03-30T02:26:18.385Z,2.50
2018-03-30T02:28:46.702Z,2.50
2018-03-30T02:31:14.968Z,2.60
2018-03-30T02:33:43.206Z,2.60
2018-03-30T02:36:12.262Z,2.80
2018-03-30T02:38:40.565Z,2.70
2018-03-30T02:41:08.799Z,2.90
2018-03-30T02:43:37.133Z,3.00
2018-03-30T02:46:05.817Z,3.10
2018-03-30T02:48:34.890Z,3.20
2018-03-30T02:51:03.391Z,3.20
2018-03-30T02:53:31.643Z,3.20
2018-03-30T02:55:59.903Z,3.30
2018-03-30T02:58:28.125Z,3.40
2018-03-30T03:00:57.171Z,3.40
2018-03-30T03:03:26.210Z,3.30
2018-03-30T03:05:54.574Z,3.40
2018-03-30T03:08:22.843Z,3.40
2018-03-30T03:10:51.062Z,3.40
2018-03-30T03:13:20.107Z,3.50
2018-03-30T03:15:48.384Z,3.50
2018-03-30T03:18:16.653Z,3.50
2018-03-30T03:20:44.889Z,3.50
2018-03-30T03:23:13.915Z,3.60
2018-03-30T03:25:42.182Z,3.60
2018-03-30T03:28:10.410Z,3.60
2018-03-30T03:30:38.678Z,3.60
2018-03-30T03:33:06.903Z,3.60
2018-03-30T03:35:35.145Z,3.60
2018-03-30T03:38:03.687Z,3.70
2018-03-30T03:40:31.917Z,3.70
2018-03-30T03:43:00.965Z,3.70
2018-03-30T03:45:29.216Z,3.70
2018-03-30T03:47:57.784Z,3.80
2018-03-30T03:50:26.031Z,3.80
2018-03-30T03:52:54.281Z,3.80
2018-03-30T03:55:22.555Z,3.80
2018-03-30T03:57:50.890Z,3.80
2018-03-30T04:00:19.897Z,3.80
2018-03-30T04:02:49.474Z,3.90
2018-03-30T04:05:17.758Z,3.90
2018-03-30T04:07:46.010Z,3.80
2018-03-30T04:10:14.289Z,3.90
2018-03-30T04:12:42.514Z,3.90
2018-03-30T04:15:10.816Z,3.90
2018-03-30T04:17:39.106Z,3.90
2018-03-30T04:20:07.363Z,4.00
2018-03-30T04:22:35.602Z,3.90
2018-03-30T04:25:05.422Z,3.90
2018-03-30T04:27:33.639Z,3.90
2018-03-30T04:30:03.332Z,3.90
2018-03-30T04:32:31.574Z,3.90
2018-03-30T04:35:00.590Z,3.90
2018-03-30T04:37:29.662Z,3.90
2018-03-30T04:39:57.936Z,3.90
2018-03-30T04:42:26.209Z,4.00
2018-03-30T04:44:54.466Z,4.00
2018-03-30T04:47:22.740Z,4.00
2018-03-30T04:49:51.004Z,4.00
2018-03-30T04:52:19.255Z,4.10
2018-03-30T04:54:49.105Z,4.10
2018-03-30T04:57:17.364Z,4.10
2018-03-30T04:59:45.617Z,4.10
2018-03-30T05:02:14.634Z,4.20
2018-03-30T05:04:42.875Z,4.10
2018-03-30T05:07:11.930Z,4.30
2018-03-30T05:09:40.185Z,4.20
2018-03-30T05:12:08.451Z,4.30
2018-03-30T05:14:36.701Z,4.30
2018-03-30T05:17:04.979Z,4.30
2018-03-30T05:19:33.215Z,4.30
2018-03-30T05:22:01.493Z,4.30
2018-03-30T05:24:29.736Z,4.30
2018-03-30T05:26:58.042Z,4.30
2018-03-30T05:29:26.410Z,4.20
2018-03-30T05:31:54.650Z,4.20
2018-03-30T05:34:23.664Z,4.20
2018-03-30T05:36:51.929Z,4.20
2018-03-30T05:39:20.956Z,4.30
2018-03-30T05:41:49.208Z,4.30
2018-03-30T05:44:18.194Z,4.30
2018-03-30T05:46:47.245Z,4.40
2018-03-30T05:49:15.482Z,4.40
2018-03-30T05:51:43.725Z,4.50
2018-03-30T05:54:11.996Z,4.50
2018-03-30T05:56:40.239Z,4.60
2018-03-30T05:59:08.463Z,4.60
2018-03-30T06:01:36.705Z,4.70
2018-03-30T06:04:05.707Z,4.70
2018-03-30T06:06:34.417Z,4.80
2018-03-30T06:09:02.690Z,4.90
2018-03-30T06:11:31.589Z,5.00
2018-03-30T06:14:00.723Z,5.00
2018-03-30T06:16:29.012Z,5.10
2018-03-30T06:18:58.194Z,5.20
2018-03-30T06:21:26.872Z,5.30
2018-03-30T06:23:55.101Z,5.40
2018-03-30T06:26:23.346Z,5.40
2018-03-30T06:28:51.605Z,5.50
2018-03-30T06:31:20.607Z,5.60
2018-03-30T06:33:48.897Z,5.60
2018-03-30T06:36:17.128Z,5.70
2018-03-30T06:38:45.421Z,5.90
2018-03-30T06:41:13.661Z,6.00
2018-03-30T06:43:41.924Z,6.10
2018-03-30T06:46:10.227Z,6.10
2018-03-30T06:48:38.452Z,6.20
2018-03-30T06:51:06.716Z,6.30
2018-03-30T06:53:35.742Z,6.40
2018-03-30T06:56:04.004Z,6.30
2018-03-30T06:58:32.267Z,6.40
2018-03-30T07:01:01.284Z,6.50
2018-03-30T07:03:29.556Z,6.50
2018-03-30T07:05:57.810Z,6.60
2018-03-30T07:08:26.807Z,6.60
2018-03-30T07:10:55.806Z,6.70
2018-03-30T07:13:24.063Z,6.80
2018-03-30T07:15:52.318Z,6.90
2018-03-30T07:18:20.588Z,7.10
2018-03-30T07:20:48.835Z,7.20
2018-03-30T07:23:17.137Z,7.30
2018-03-30T07:25:45.616Z,7.30
2018-03-30T07:28:13.884Z,7.30
2018-03-30T07:30:42.193Z,7.40
2018-03-30T07:33:10.473Z,7.50
2018-03-30T07:35:38.777Z,7.50
2018-03-30T07:38:09.182Z,7.70
2018-03-30T07:40:37.466Z,7.60
2018-03-30T07:43:05.726Z,7.80
2018-03-30T07:45:34.000Z,7.80
2018-03-30T07:48:02.869Z,7.90
2018-03-30T07:50:31.841Z,7.90
2018-03-30T07:53:00.392Z,8.00
2018-03-30T07:55:29.260Z,8.10
2018-03-30T07:57:57.484Z,8.20
2018-03-30T08:00:25.736Z,8.20
2018-03-30T08:02:54.007Z,8.40
2018-03-30T08:05:22.267Z,8.40
2018-03-30T08:07:50.528Z,8.50
2018-03-30T08:10:18.781Z,8.70
2018-03-30T08:12:47.089Z,8.60
2018-03-30T08:15:15.357Z,8.70
2018-03-30T08:17:43.635Z,8.70
2018-03-30T08:20:11.904Z,8.80
2018-03-30T08:22:40.161Z,8.90
2018-03-30T08:25:09.437Z,9.00
2018-03-30T08:27:38.472Z,9.10
2018-03-30T08:30:06.768Z,9.10
2018-03-30T08:32:34.994Z,9.20
2018-03-30T08:35:04.165Z,9.40
2018-03-30T08:37:32.411Z,9.30
2018-03-30T08:40:00.729Z,9.50
2018-03-30T08:42:29.009Z,9.60
2018-03-30T08:44:57.262Z,9.60
2018-03-30T08:47:26.698Z,9.90
2018-03-30T08:49:54.968Z,9.80
2018-03-30T08:52:23.237Z,10.00
2018-03-30T08:54:51.509Z,10.00
2018-03-30T08:57:19.773Z,10.10
2018-03-30T08:59:48.080Z,10.10
2018-03-30T09:02:16.368Z,10.20
2018-03-30T09:04:45.410Z,10.40
2018-03-30T09:07:13.665Z,10.30
2018-03-30T09:09:41.922Z,10.50
2018-03-30T09:12:11.282Z,10.50
2018-03-30T09:14:39.525Z,10.50
2018-03-30T09:17:07.851Z,10.50
2018-03-30T09:19:36.100Z,10.60
2018-03-30T09:22:04.354Z,10.60
2018-03-30T09:24:32.647Z,10.80
2018-03-30T09:27:01.832Z,10.90
2018-03-30T09:29:30.117Z,10.90
2018-03-30T09:31:58.373Z,11.00
2018-03-30T09:34:27.401Z,11.20
2018-03-30T09:36:55.666Z,11.20
2018-03-30T09:39:25.452Z,11.40
2018-03-30T09:41:53.728Z,11.40
2018-03-30T09:44:23.124Z,11.50
2018-03-30T09:46:51.376Z,11.40
2018-03-30T09:49:19.640Z,11.50
2018-03-30T09:51:47.941Z,11.50
2018-03-30T09:54:16.185Z,11.50
2018-03-30T09:56:44.511Z,11.50
2018-03-30T09:59:13.270Z,11.40
2018-03-30T10:01:41.546Z,11.30
2018-03-30T10:04:09.913Z,11.40
2018-03-30T10:06:38.189Z,11.40
2018-03-30T10:09:06.720Z,11.40
2018-03-30T10:11:35.886Z,11.50
2018-03-30T10:14:04.210Z,11.50
2018-03-30T10:16:33.388Z,11.70
2018-03-30T10:19:05.362Z,11.70
2018-03-30T10:21:33.605Z,11.50
2018-03-30T10:24:01.872Z,11.60
2018-03-30T10:26:30.129Z,11.80
2018-03-30T10:28:58.394Z,11.70
2018-03-30T10:31:27.464Z,11.80
2018-03-30T10:33:55.748Z,11.80
2018-03-30T10:36:24.032Z,11.90
2018-03-30T10:38:53.060Z,11.90
2018-03-30T10:41:21.369Z,12.00
2018-03-30T10:43:50.579Z,12.00
2018-03-30T10:46:18.832Z,12.10
2018-03-30T10:48:47.103Z,12.20
2018-03-30T10:51:15.733Z,12.20
2018-03-30T10:53:44.378Z,12.30
2018-03-30T10:56:12.676Z,12.40
2018-03-30T10:58:41.893Z,12.50
2018-03-30T11:01:10.145Z,12.50
2018-03-30T11:03:38.465Z,12.40
2018-03-30T11:06:07.498Z,12.50
2018-03-30T11:08:38.539Z,12.40
2018-03-30T11:11:06.818Z,12.60
2018-03-30T11:13:35.349Z,12.60
2018-03-30T11:16:03.630Z,12.60
2018-03-30T11:18:32.678Z,12.50
2018-03-30T11:21:01.923Z,12.50
2018-03-30T11:23:30.156Z,12.60
2018-03-30T11:25:58.435Z,12.60
2018-03-30T11:28:26.709Z,12.60
2018-03-30T11:30:54.984Z,12.70
2018-03-30T11:33:23.247Z,12.80
2018-03-30T11:35:51.586Z,12.80
2018-03-30T11:38:19.963Z,12.90
2018-03-30T11:40:48.213Z,12.90
2018-03-30T11:43:16.498Z,12.90
2018-03-30T11:45:44.794Z,13.00
2018-03-30T11:48:13.378Z,13.10
2018-03-30T11:50:41.739Z,13.10
2018-03-30T11:53:10.015Z,13.10
2018-03-30T11:55:38.332Z,13.20
2018-03-30T11:58:08.591Z,13.30
2018-03-30T12:00:36.879Z,13.30
2018-03-30T12:03:05.130Z,13.30
2018-03-30T12:05:33.404Z,13.40
2018-03-30T12:08:01.724Z,13.30
2018-03-30T12:10:30.747Z,13.40
2018-03-30T12:12:59.007Z,13.30
2018-03-30T12:15:27.282Z,13.20
2018-03-30T12:17:55.556Z,13.20
2018-03-30T12:20:24.163Z,13.20
2018-03-30T12:22:52.423Z,13.30
2018-03-30T12:25:22.225Z,13.30
2018-03-30T12:27:50.652Z,13.40
2018-03-30T12:30:19.739Z,13.60
2018-03-30T12:32:48.167Z,13.60
2018-03-30T12:35:16.524Z,13.60
2018-03-30T12:37:45.133Z,13.60
2018-03-30T12:40:13.378Z,13.60
2018-03-30T12:42:42.415Z,13.70
2018-03-30T12:45:11.335Z,13.70
2018-03-30T12:47:39.672Z,13.70
2018-03-30T12:52:38.187Z,14.00
2018-03-30T12:55:06.428Z,14.00
2018-03-30T12:57:35.532Z,14.10
2018-03-30T13:00:03.819Z,14.10
2018-03-30T13:02:33.457Z,14.30
2018-03-30T13:05:01.929Z,14.20
2018-03-30T13:07:30.174Z,14.20
2018-03-30T13:09:58.494Z,14.30
2018-03-30T13:12:27.281Z,14.30
2018-03-30T13:14:56.408Z,14.30
2018-03-30T13:17:24.635Z,14.30
2018-03-30T13:19:52.919Z,14.30
2018-03-30T13:22:21.192Z,14.40
2018-03-30T13:24:49.885Z,14.50
2018-03-30T13:27:18.460Z,14.60
2018-03-30T13:29:46.700Z,14.40
2018-03-30T13:32:15.785Z,14.20
2018-03-30T13:34:44.059Z,14.20
2018-03-30T13:37:12.318Z,14.20
2018-03-30T13:39:41.548Z,14.30
2018-03-30T13:42:09.768Z,14.40
2018-03-30T13:44:38.062Z,14.10
2018-03-30T13:47:07.311Z,14.10
2018-03-30T13:49:36.344Z,14.20
2018-03-30T13:52:11.289Z,14.20
2018-03-30T13:54:39.661Z,14.10
2018-03-30T13:57:11.836Z,14.20
2018-03-30T13:59:41.345Z,14.30
2018-03-30T14:02:14.025Z,14.30
2018-03-30T14:04:49.072Z,14.20
2018-03-30T14:07:23.272Z,14.20
2018-03-30T14:09:51.548Z,14.10
2018-03-30T14:12:37.165Z,14.00
2018-03-30T14:15:06.372Z,14.00
2018-03-30T14:17:43.495Z,14.00
2018-03-30T14:20:14.462Z,14.10
2018-03-30T14:22:53.361Z,14.10
2018-03-30T14:25:22.999Z,14.10
2018-03-30T14:27:52.194Z,14.20
2018-03-30T14:30:27.280Z,14.00
2018-03-30T14:33:03.278Z,14.00
2018-03-30T14:35:32.386Z,14.10
2018-03-30T14:38:01.581Z,14.20
2018-03-30T14:40:30.480Z,14.10
2018-03-30T14:43:02.367Z,14.10
2018-03-30T14:48:28.988Z,14.20
2018-03-30T14:54:12.665Z,14.20
2018-03-30T14:56:42.850Z,14.20
2018-03-30T14:59:17.967Z,14.10
2018-03-30T15:01:57.071Z,14.00
2018-03-30T15:04:39.930Z,13.80
2018-03-30T15:07:17.090Z,13.80
2018-03-30T15:10:03.597Z,13.50
2018-03-30T15:12:37.247Z,13.50
2018-03-30T15:15:12.149Z,13.40
2018-03-30T15:17:51.352Z,13.50
2018-03-30T15:20:22.309Z,13.40
2018-03-30T15:25:54.428Z,13.40
2018-03-30T15:28:23.604Z,13.30
2018-03-30T15:34:02.523Z,13.30
2018-03-30T15:36:36.872Z,13.40
2018-03-30T15:39:07.822Z,13.30
2018-03-30T15:41:37.685Z,13.40
2018-03-30T15:44:05.968Z,13.40
2018-03-30T15:46:35.252Z,13.50
2018-03-30T15:49:03.586Z,13.60
2018-03-30T15:51:32.392Z,13.50
2018-03-30T15:54:00.241Z,13.50
2018-03-30T15:56:30.684Z,13.50
2018-03-30T15:58:59.056Z,13.40
2018-03-30T16:01:28.116Z,13.30
2018-03-30T16:03:56.406Z,13.30
2018-03-30T16:06:24.700Z,13.30
2018-03-30T16:08:52.994Z,13.30
2018-03-30T16:11:26.110Z,13.40
2018-03-30T16:13:54.427Z,13.40
2018-03-30T16:16:23.021Z,13.50
2018-03-30T16:18:57.164Z,13.50
2018-03-30T16:21:26.675Z,13.50
2018-03-30T16:23:55.331Z,13.50
2018-03-30T16:26:24.178Z,13.40
2018-03-30T16:28:52.348Z,13.40
2018-03-30T16:31:21.518Z,13.20
2018-03-30T16:33:50.501Z,13.10
2018-03-30T16:36:19.074Z,13.10
2018-03-30T16:38:46.873Z,13.10
2018-03-30T16:41:14.399Z,13.00
2018-03-30T16:43:42.967Z,13.00
2018-03-30T16:46:10.527Z,13.00
2018-03-30T16:48:38.839Z,12.80
2018-03-30T16:51:06.442Z,12.80
2018-03-30T16:53:33.967Z,12.70
2018-03-30T16:56:01.575Z,12.70
2018-03-30T16:58:29.490Z,12.70
2018-03-30T17:00:57.651Z,12.60
2018-03-30T17:03:25.213Z,12.60
2018-03-30T17:05:53.033Z,12.60
2018-03-30T17:08:20.573Z,12.50
2018-03-30T17:10:49.483Z,12.50
2018-03-30T17:13:17.015Z,12.50
2018-03-30T17:15:44.545Z,12.50
2018-03-30T17:18:12.101Z,12.50
2018-03-30T17:20:40.505Z,12.50
2018-03-30T17:23:08.071Z,12.50
2018-03-30T17:25:36.849Z,12.40
2018-03-30T17:28:05.621Z,12.40
2018-03-30T17:30:33.912Z,12.30
2018-03-30T17:33:01.445Z,12.30
2018-03-30T17:35:28.988Z,12.30
2018-03-30T17:37:58.234Z,12.30
2018-03-30T17:40:26.286Z,12.30
2018-03-30T17:42:55.296Z,12.30
2018-03-30T17:45:23.427Z,12.30
2018-03-30T17:47:51.546Z,12.30
2018-03-30T17:50:19.077Z,12.30
2018-03-30T17:52:49.140Z,12.30
2018-03-30T17:55:16.673Z,12.30
2018-03-30T17:57:45.331Z,12.20
2018-03-30T18:00:12.896Z,12.10
2018-03-30T18:02:41.281Z,12.10
2018-03-30T18:05:08.835Z,12.10
2018-03-30T18:07:38.297Z,12.00
2018-03-30T18:10:05.853Z,12.00
2018-03-30T18:12:33.409Z,12.00
2018-03-30T18:15:01.201Z,12.00
2018-03-30T18:17:28.724Z,12.00
2018-03-30T18:19:56.268Z,12.00
2018-03-30T18:22:23.809Z,12.00
2018-03-30T18:24:51.352Z,12.00
2018-03-30T18:27:18.952Z,12.00
2018-03-30T18:29:47.961Z,12.00
2018-03-30T18:32:15.526Z,12.00
2018-03-30T18:34:43.105Z,11.90
2018-03-30T18:37:11.205Z,11.90
2018-03-30T18:39:38.801Z,11.80
2018-03-30T18:42:06.360Z,11.80
2018-03-30T18:44:34.675Z,11.70
2018-03-30T18:47:02.245Z,11.70
2018-03-30T18:49:29.800Z,11.80
2018-03-30T18:51:57.397Z,11.70
2018-03-30T18:54:25.516Z,11.70
2018-03-30T18:56:53.180Z,11.60
2018-03-30T18:59:21.882Z,11.60
2018-03-30T19:01:49.748Z,11.60
2018-03-30T19:04:17.616Z,11.50
2018-03-30T19:06:45.176Z,11.50
2018-03-30T19:09:12.703Z,11.50
2018-03-30T19:11:40.605Z,11.50
2018-03-30T19:14:08.186Z,11.50
2018-03-30T19:16:36.236Z,11.50
2018-03-30T19:19:03.800Z,11.40
2018-03-30T19:21:31.376Z,11.40
2018-03-30T19:23:58.914Z,11.30
2018-03-30T19:26:26.892Z,11.20
2018-03-30T19:28:54.412Z,11.20
2018-03-30T19:31:23.036Z,11.10
2018-03-30T19:33:50.598Z,11.10
2018-03-30T19:36:18.133Z,11.10
2018-03-30T19:38:46.039Z,11.10
2018-03-30T19:41:13.557Z,11.00
2018-03-30T19:43:41.096Z,11.00
2018-03-30T19:46:09.444Z,11.00
2018-03-30T19:48:37.017Z,11.00
2018-03-30T19:51:04.812Z,10.90
2018-03-30T19:53:32.407Z,10.80
2018-03-30T19:56:00.056Z,10.90
2018-03-30T19:58:27.755Z,10.70
2018-03-30T20:00:56.820Z,10.60
2018-03-30T20:03:26.090Z,10.60
2018-03-30T20:05:53.611Z,10.30
2018-03-30T20:08:21.194Z,10.20
2018-03-30T20:10:49.730Z,10.10
2018-03-30T20:13:17.297Z,9.90
2018-03-30T20:15:44.977Z,9.80
2018-03-30T20:18:12.586Z,9.70
2018-03-30T20:20:40.146Z,9.70
2018-03-30T20:23:07.655Z,9.80
2018-03-30T20:25:35.224Z,9.90
2018-03-30T20:28:02.770Z,9.90
2018-03-30T20:30:30.344Z,9.80
2018-03-30T20:32:58.410Z,9.80
2018-03-30T20:35:26.988Z,9.80
2018-03-30T20:37:55.436Z,10.00
2018-03-30T20:40:23.815Z,10.10
2018-03-30T20:42:52.115Z,10.10
2018-03-30T20:45:19.809Z,10.10
2018-03-30T20:47:47.382Z,10.10
2018-03-30T20:50:16.036Z,9.80
2018-03-30T20:52:43.600Z,9.80
2018-03-30T20:55:11.565Z,9.90
2018-03-30T20:57:40.441Z,9.90
2018-03-30T21:00:07.982Z,10.00
2018-03-30T21:02:36.411Z,10.00
2018-03-30T21:05:04.581Z,9.90
2018-03-30T21:07:32.231Z,10.00
2018-03-30T21:10:01.441Z,10.10
2018-03-30T21:12:29.733Z,10.20
2018-03-30T21:14:57.285Z,10.20
2018-03-30T21:17:24.826Z,10.10
2018-03-30T21:19:53.296Z,10.00
2018-03-30T21:22:21.583Z,10.00
2018-03-30T21:24:49.130Z,10.00
2018-03-30T21:27:16.675Z,9.90
2018-03-30T21:29:44.992Z,9.80
2018-03-30T21:32:12.508Z,9.80
2018-03-30T21:34:40.803Z,9.70
2018-03-30T21:37:08.334Z,9.60
2018-03-30T21:39:35.893Z,9.60
2018-03-30T21:42:03.437Z,9.50
2018-03-30T21:44:30.956Z,9.40
2018-03-30T21:46:58.498Z,9.20
2018-03-30T21:49:26.819Z,9.30
2018-03-30T21:51:54.481Z,9.20
2018-03-30T21:54:21.987Z,9.20
2018-03-30T21:56:49.486Z,9.10
2018-03-30T21:59:17.037Z,9.20
2018-03-30T22:01:45.443Z,9.10
2018-03-30T22:04:12.977Z,9.10
2018-03-30T22:06:41.328Z,9.00
2018-03-30T22:09:08.817Z,9.00
2018-03-30T22:11:36.404Z,9.00
2018-03-30T22:14:03.911Z,9.10
2018-03-30T22:16:32.222Z,9.10
2018-03-30T22:18:59.765Z,9.10
2018-03-30T22:21:27.261Z,9.10
2018-03-30T22:23:55.056Z,9.20
2018-03-30T22:26:22.600Z,9.20
2018-03-30T22:28:50.138Z,9.10
2018-03-30T22:31:17.635Z,9.10
2018-03-30T22:33:45.224Z,9.10
2018-03-30T22:36:12.719Z,9.20
2018-03-30T22:38:40.258Z,9.20
2018-03-30T22:41:09.352Z,9.10
2018-03-30T22:43:36.893Z,9.10
2018-03-30T22:46:05.581Z,9.00
2018-03-30T22:48:33.052Z,8.90
2018-03-30T22:51:00.601Z,8.90
2018-03-30T22:53:28.888Z,8.70
2018-03-30T22:55:56.438Z,8.70
2018-03-30T22:58:24.792Z,8.70
2018-03-30T23:00:52.428Z,8.70
2018-03-30T23:03:19.948Z,8.60
2018-03-30T23:05:47.737Z,8.50
2018-03-30T23:08:15.606Z,8.40
2018-03-30T23:10:43.368Z,8.30
2018-03-30T23:13:11.148Z,8.30
2018-03-30T23:15:40.019Z,8.40
2018-03-30T23:18:08.222Z,8.40
2018-03-30T23:20:36.007Z,8.50
2018-03-30T23:23:03.751Z,8.50
2018-03-30T23:25:32.336Z,8.50
2018-03-30T23:28:00.132Z,8.40
2018-03-30T23:30:28.664Z,8.40
2018-03-30T23:32:56.670Z,8.30
2018-03-30T23:35:24.424Z,8.30
2018-03-30T23:37:52.619Z,8.30
2018-03-30T23:40:20.673Z,8.30
2018-03-30T23:42:48.424Z,8.30
2018-03-30T23:45:16.187Z,8.30
2018-03-30T23:47:43.924Z,8.20
2018-03-30T23:50:11.683Z,8.20
2018-03-30T23:52:39.430Z,8.30
2018-03-30T23:55:07.955Z,8.20
2018-03-30T23:57:35.682Z,8.20
